Jackson, NH (03846)

6:23 PM EDT on September 30, 2014 (GMT -0400)
Dana Place | Change Station
CLOSE
Current Station
Personal Weather Station
Location: JACKSON, NH
Elevation: 1190 ft
Nearby Weather Stations

Elev 1190 ft 44.20 °N, 71.23 °W | Updated 13 seconds ago

Mostly Cloudy
Mostly Cloudy
56.9 °F
Feels Like 56.9 °F
N
0.0
Wind Variable Wind from NW
Gusts 0.0 mph

Today
High -- | Low -- °F
--% Chance of Precip.
Yesterday
High -- | Low -- °F
Precip. -- in
6:41 AM 6:27 PM
Waxing Crescent, 40% visible
Pressure 29.70 in
Visibility 10.0 miles
Clouds Mostly Cloudy 8000 ft
Dew Point 53 °F
Humidity 87%
Rainfall 0.11 in
Snow Depth Not available.
UV 0 out of 12
Pollen .60 out of 12
Ozone Good
Flu Activity Not available.
METAR KCWN 302156Z AUTO 14006KT 10SM BKN080 17/M02 A2987 RMK AO2 SLP057 T01711017

More Conditions Fewer Conditions

Pressure 29.70 in
Visibility 10.0 miles
Clouds Mostly Cloudy 8000 ft
Dew Point 53 °F
Humidity 87%
Rainfall 0.11 in
Snow Depth Not available.
UV 0 out of 12
Pollen .60 out of 12
Ozone Good
Flu Activity Not available.
METAR KCWN 302156Z AUTO 14006KT 10SM BKN080 17/M02 A2987 RMK AO2 SLP057 T01711017

More Conditions Fewer Conditions

10-Day Weather Forecast

Almanac

Astronomy

Sep. 30, 2014 Rise Set
Actual Time 6:41 AM EDT 6:27 PM EDT
Civil Twilight 6:12 AM EDT 6:56 PM EDT
Nautical Twilight 5:38 AM EDT 7:29 PM EDT
Astronomical Twilight 5:04 AM EDT 8:03 PM EDT
Moon 12:56 PM EDT 10:44 PM EDT
Length of Visible Light 12h 43m
Length of Day
11h 46m
Tomorrow will be 3m 1s shorter.
Waxing Crescent, 40% of the Moon is Illuminated
Today
Waxing Crescent
Oct 1
First Quarter
Oct 8
Full
Oct 15
Last Quarter
Oct 23
New

Today's Extremes

State Highs State Lows

Community

WunderPhotos

Upload Photos

1,757,767 photos uploaded!

Nearby

Air Quality

  Air Quality AQ Index Pollutant
Yesterday Good
OZONE
Current Good
OZONE
Tuesday Good
PM2.5
Tuesday Good
OZONE
Wednesday Good
PM2.5
Wednesday Good
OZONE

Snow Depth

Station Depth Elevation
No new snow has been reported.

Earthquake Activity

City Distance Mag. Time & Date
No recent earthquake activity has been reported nearby.
Minimum magnitude displayed is 2.5.

Coastal Water Temperatures

Place Temperature
No Stations Reporting

Nearby Weather Stations